createdAt,value
2023-05-22T00:03:13.690Z,17.33
2023-05-22T00:06:58.668Z,17.26
2023-05-22T00:10:43.622Z,16.93
2023-05-22T00:14:29.196Z,16.83
2023-05-22T00:18:14.425Z,16.51
2023-05-22T00:21:59.151Z,16.44
2023-05-22T00:25:45.183Z,16.45
2023-05-22T00:29:29.655Z,16.48
2023-05-22T00:33:14.321Z,16.57
2023-05-22T00:37:05.463Z,16.50
2023-05-22T00:40:56.016Z,16.59
2023-05-22T00:44:47.926Z,16.54
2023-05-22T00:47:38.194Z,16.44
2023-05-22T00:50:26.264Z,16.33
2023-05-22T00:53:14.373Z,16.28
2023-05-22T00:56:02.226Z,16.16
2023-05-22T00:58:50.771Z,15.92
2023-05-22T01:01:42.451Z,15.90
2023-05-22T01:04:32.171Z,15.79
2023-05-22T01:07:21.118Z,15.66
2023-05-22T01:10:09.875Z,15.59
2023-05-22T01:13:06.746Z,15.51
2023-05-22T01:16:13.773Z,15.32
2023-05-22T01:19:12.095Z,15.23
2023-05-22T01:22:06.224Z,15.10
2023-05-22T01:25:11.401Z,14.96
2023-05-22T01:28:02.424Z,14.87
2023-05-22T01:31:10.680Z,14.78
2023-05-22T01:34:00.779Z,14.68
2023-05-22T01:36:48.308Z,14.58
2023-05-22T01:39:36.513Z,14.50
2023-05-22T01:42:24.076Z,14.45
2023-05-22T01:45:11.918Z,14.41
2023-05-22T01:48:00.451Z,14.35
2023-05-22T01:50:48.406Z,14.32
2023-05-22T01:53:41.669Z,14.26
2023-05-22T01:56:34.069Z,14.27
2023-05-22T01:59:54.082Z,14.15
2023-05-22T02:02:44.768Z,14.05
2023-05-22T02:05:33.447Z,14.09
2023-05-22T02:08:21.367Z,14.05
2023-05-22T02:11:10.065Z,14.10
2023-05-22T02:13:58.061Z,14.23
2023-05-22T02:16:47.351Z,14.29
2023-05-22T02:19:35.656Z,14.40
2023-05-22T02:22:23.739Z,14.45
2023-05-22T02:25:16.214Z,14.41
2023-05-22T02:28:04.827Z,14.46
2023-05-22T02:30:52.805Z,14.47
2023-05-22T02:33:40.817Z,14.42
2023-05-22T02:36:30.377Z,14.22
2023-05-22T02:39:18.951Z,14.26
2023-05-22T02:42:07.498Z,14.31
2023-05-22T02:44:55.633Z,14.36
2023-05-22T02:47:43.734Z,14.42
2023-05-22T02:50:33.603Z,14.49
2023-05-22T02:53:21.479Z,14.55
2023-05-22T02:56:12.424Z,14.64
2023-05-22T02:59:00.439Z,14.77
2023-05-22T03:01:48.587Z,14.89
2023-05-22T03:04:38.019Z,14.99
2023-05-22T03:07:29.023Z,15.11
2023-05-22T03:10:16.815Z,15.16
2023-05-22T03:13:04.828Z,15.26
2023-05-22T03:15:53.091Z,15.40
2023-05-22T03:18:41.530Z,15.57
2023-05-22T03:21:29.594Z,15.73
2023-05-22T03:24:17.566Z,15.89
2023-05-22T03:27:05.560Z,16.18
2023-05-22T03:30:03.614Z,16.52
2023-05-22T03:32:52.685Z,16.82
2023-05-22T03:35:43.353Z,17.10
2023-05-22T03:38:31.777Z,17.33
2023-05-22T03:41:19.655Z,17.57
2023-05-22T03:44:07.872Z,17.79
2023-05-22T03:46:56.159Z,17.99
2023-05-22T03:49:44.197Z,18.18
2023-05-22T03:52:32.237Z,18.33
2023-05-22T03:55:20.140Z,18.48
2023-05-22T03:58:10.413Z,18.60
2023-05-22T04:01:00.609Z,18.75
2023-05-22T04:03:50.536Z,18.87
2023-05-22T04:06:42.548Z,18.94
2023-05-22T04:09:30.855Z,19.03
2023-05-22T04:12:19.440Z,19.14
2023-05-22T04:15:08.696Z,19.24
2023-05-22T04:17:56.746Z,19.34
2023-05-22T04:20:44.753Z,19.39
2023-05-22T04:23:32.849Z,19.47
2023-05-22T04:26:20.888Z,19.55
2023-05-22T04:29:09.953Z,19.57
2023-05-22T04:31:59.683Z,19.57
2023-05-22T04:34:52.238Z,19.70
2023-05-22T04:37:41.850Z,19.90
2023-05-22T04:40:33.006Z,19.94
2023-05-22T04:43:23.019Z,20.07
2023-05-22T04:46:12.489Z,20.19
2023-05-22T04:49:01.563Z,20.33
2023-05-22T04:51:49.672Z,20.49
2023-05-22T04:54:39.033Z,20.65
2023-05-22T04:57:27.132Z,20.81
2023-05-22T05:00:16.678Z,20.79
2023-05-22T05:03:07.524Z,20.78
2023-05-22T05:05:56.385Z,20.84
2023-05-22T05:08:47.412Z,21.02
2023-05-22T05:11:35.824Z,21.28
2023-05-22T05:14:25.198Z,21.47
2023-05-22T05:17:13.416Z,21.53
2023-05-22T05:20:01.537Z,21.56
2023-05-22T05:22:56.129Z,21.57
2023-05-22T05:25:44.390Z,21.70
2023-05-22T05:28:33.210Z,21.84
2023-05-22T05:31:22.290Z,22.02
2023-05-22T05:34:19.702Z,22.10
2023-05-22T05:37:19.065Z,22.16
2023-05-22T05:40:09.340Z,22.16
2023-05-22T05:43:00.387Z,22.28
2023-05-22T05:45:49.489Z,22.49
2023-05-22T05:48:37.529Z,22.63
2023-05-22T05:51:26.901Z,22.80
2023-05-22T05:54:17.222Z,22.92
2023-05-22T05:57:06.757Z,23.05
2023-05-22T05:59:56.506Z,23.28
2023-05-22T06:03:03.160Z,23.37
2023-05-22T06:06:06.776Z,23.57
2023-05-22T06:09:15.988Z,23.77
2023-05-22T06:12:32.058Z,23.99
2023-05-22T06:15:20.743Z,24.10
2023-05-22T06:18:08.838Z,24.20
2023-05-22T06:20:58.749Z,24.31
2023-05-22T06:23:47.747Z,24.36
2023-05-22T06:26:36.270Z,24.56
2023-05-22T06:29:24.394Z,24.61
2023-05-22T06:32:13.689Z,24.65
2023-05-22T06:35:02.529Z,24.88
2023-05-22T06:37:52.653Z,25.08
2023-05-22T06:40:41.502Z,25.26
2023-05-22T06:43:37.894Z,25.54
2023-05-22T06:46:33.803Z,25.82
2023-05-22T06:49:24.622Z,25.94
2023-05-22T06:52:15.177Z,25.90
2023-05-22T06:55:06.279Z,25.86
2023-05-22T06:58:01.589Z,25.92
2023-05-22T07:00:49.706Z,26.01
2023-05-22T07:03:43.257Z,26.17
2023-05-22T07:06:54.717Z,26.29
2023-05-22T07:09:43.237Z,26.30
2023-05-22T07:12:31.820Z,26.33
2023-05-22T07:15:22.223Z,26.41
2023-05-22T07:18:14.750Z,26.61
2023-05-22T07:21:03.580Z,26.77
2023-05-22T07:23:52.263Z,26.91
2023-05-22T07:26:45.276Z,26.93
2023-05-22T07:29:33.469Z,27.05
2023-05-22T07:32:22.253Z,27.04
2023-05-22T07:35:14.864Z,26.98
2023-05-22T07:38:03.519Z,27.13
2023-05-22T07:40:52.079Z,27.12
2023-05-22T07:43:39.932Z,26.97
2023-05-22T07:46:28.868Z,27.12
2023-05-22T07:49:21.736Z,27.42
2023-05-22T07:52:11.560Z,27.41
2023-05-22T07:55:00.326Z,27.30
2023-05-22T07:57:48.920Z,27.29
2023-05-22T08:00:45.933Z,27.38
2023-05-22T08:03:38.556Z,27.54
2023-05-22T08:06:26.480Z,27.73
2023-05-22T08:09:14.482Z,27.90
2023-05-22T08:12:02.743Z,28.07
2023-05-22T08:14:50.802Z,28.24
2023-05-22T08:17:39.028Z,28.24
2023-05-22T08:20:27.567Z,28.25
2023-05-22T08:23:15.518Z,28.20
2023-05-22T08:26:04.376Z,28.34
2023-05-22T08:28:52.470Z,28.67
2023-05-22T08:31:41.117Z,28.96
2023-05-22T08:34:29.242Z,29.16
2023-05-22T08:37:17.376Z,29.24
2023-05-22T08:40:07.987Z,29.28
2023-05-22T08:42:57.159Z,29.22
2023-05-22T08:45:45.317Z,29.01
2023-05-22T08:48:33.566Z,28.98
2023-05-22T08:51:21.965Z,28.97
2023-05-22T08:54:09.987Z,29.15
2023-05-22T08:56:58.008Z,29.39
2023-05-22T08:59:46.599Z,29.52
2023-05-22T09:02:35.541Z,29.69
2023-05-22T09:05:26.390Z,29.74
2023-05-22T09:08:20.320Z,29.89
2023-05-22T09:11:10.536Z,30.04
2023-05-22T09:14:08.533Z,30.32
2023-05-22T09:16:56.888Z,30.73
2023-05-22T09:19:47.662Z,31.18
2023-05-22T09:22:39.628Z,31.48
2023-05-22T09:25:27.485Z,31.58
2023-05-22T09:28:15.736Z,31.63
2023-05-22T09:31:04.462Z,31.69
2023-05-22T09:33:52.342Z,31.77
2023-05-22T09:36:41.042Z,31.65
2023-05-22T09:39:40.937Z,31.32
2023-05-22T09:42:29.284Z,31.14
2023-05-22T09:45:19.509Z,30.98
2023-05-22T09:48:08.124Z,30.71
2023-05-22T09:50:56.308Z,30.62
2023-05-22T09:53:44.489Z,30.39
2023-05-22T09:56:39.000Z,30.08
2023-05-22T09:59:32.579Z,29.88
2023-05-22T10:02:24.997Z,29.72
2023-05-22T10:05:20.856Z,29.60
2023-05-22T10:08:11.764Z,29.64
2023-05-22T10:10:59.737Z,29.69
2023-05-22T10:13:48.425Z,29.40
2023-05-22T10:16:41.486Z,29.53
2023-05-22T10:19:32.191Z,29.71
2023-05-22T10:22:22.093Z,29.68
2023-05-22T10:25:11.174Z,29.49
2023-05-22T10:28:00.044Z,29.34
2023-05-22T10:30:58.488Z,29.22
2023-05-22T10:34:06.799Z,29.18
2023-05-22T10:37:13.080Z,29.36
2023-05-22T10:40:07.661Z,29.48
2023-05-22T10:43:03.532Z,29.54
2023-05-22T10:46:02.097Z,29.47
2023-05-22T10:48:53.775Z,29.41
2023-05-22T10:51:41.861Z,29.33
2023-05-22T10:54:43.178Z,29.25
2023-05-22T10:57:34.568Z,29.13
2023-05-22T11:00:22.709Z,29.04
2023-05-22T11:03:17.787Z,29.11
2023-05-22T11:06:07.427Z,29.19
2023-05-22T11:08:56.180Z,29.18
2023-05-22T11:11:44.647Z,29.21
2023-05-22T11:14:32.732Z,29.24
2023-05-22T11:17:49.691Z,29.38
2023-05-22T11:20:39.364Z,29.37
2023-05-22T11:23:27.717Z,29.34
2023-05-22T11:26:20.506Z,29.37
2023-05-22T11:30:20.163Z,29.46
2023-05-22T11:34:21.728Z,29.62
2023-05-22T11:38:19.397Z,29.76
2023-05-22T11:42:20.723Z,29.90
2023-05-22T11:46:18.198Z,30.14
2023-05-22T11:54:20.243Z,30.19
2023-05-22T11:58:22.098Z,30.12
2023-05-22T12:02:20.260Z,30.06
2023-05-22T12:06:21.823Z,29.89
2023-05-22T12:10:20.414Z,29.75
2023-05-22T12:14:21.683Z,29.86
2023-05-22T12:18:18.330Z,29.92
2023-05-22T12:22:19.727Z,30.06
2023-05-22T12:26:19.388Z,30.23
2023-05-22T12:30:20.917Z,30.22
2023-05-22T12:34:18.264Z,30.34
2023-05-22T12:38:19.704Z,30.64
2023-05-22T12:42:18.444Z,30.73
2023-05-22T12:46:20.183Z,30.84
2023-05-22T12:50:22.067Z,30.82
2023-05-22T12:54:17.251Z,30.79
2023-05-22T12:58:18.909Z,30.79
2023-05-22T13:02:14.202Z,31.20
2023-05-22T13:06:16.021Z,31.42
2023-05-22T13:10:14.255Z,31.69
2023-05-22T13:14:13.447Z,32.21
2023-05-22T13:18:11.484Z,32.47
2023-05-22T13:22:12.015Z,32.42
2023-05-22T13:26:09.355Z,32.42
2023-05-22T13:30:08.830Z,32.60
2023-05-22T13:34:07.508Z,32.20
2023-05-22T13:38:12.562Z,31.57
2023-05-22T13:42:10.475Z,30.94
2023-05-22T13:46:11.315Z,30.58
2023-05-22T13:50:07.952Z,30.56
2023-05-22T13:54:05.312Z,31.16
2023-05-22T13:58:04.048Z,31.48
2023-05-22T14:02:02.640Z,31.35
2023-05-22T14:06:01.683Z,31.06
2023-05-22T14:09:58.083Z,30.61
2023-05-22T14:13:59.406Z,30.31
2023-05-22T14:17:55.576Z,30.07
2023-05-22T14:21:54.779Z,29.82
2023-05-22T14:25:50.338Z,29.64
2023-05-22T14:29:50.837Z,29.45
2023-05-22T14:33:45.261Z,29.25
2023-05-22T14:37:44.580Z,29.11
2023-05-22T14:41:39.668Z,28.87
2023-05-22T14:45:38.501Z,28.47
2023-05-22T14:49:33.733Z,28.02
2023-05-22T14:53:33.090Z,27.58
2023-05-22T14:57:28.169Z,27.31
2023-05-22T15:01:26.836Z,26.89
2023-05-22T15:05:21.860Z,26.77
2023-05-22T15:09:21.203Z,26.78
2023-05-22T15:13:16.893Z,26.55
2023-05-22T15:17:15.499Z,26.42
2023-05-22T15:21:10.835Z,26.20
2023-05-22T15:25:09.723Z,26.23
2023-05-22T15:29:05.661Z,26.13
2023-05-22T15:33:04.881Z,26.00
2023-05-22T15:36:59.671Z,25.88
2023-05-22T15:40:58.885Z,25.53
2023-05-22T15:44:54.676Z,24.94
2023-05-22T15:48:53.670Z,24.56
2023-05-22T15:52:48.876Z,24.29
2023-05-22T15:56:48.016Z,24.06
2023-05-22T16:00:42.776Z,23.82
2023-05-22T16:04:41.608Z,23.59
2023-05-22T16:08:36.618Z,23.70
2023-05-22T16:12:36.243Z,23.61
2023-05-22T16:16:31.898Z,23.65
2023-05-22T16:20:30.620Z,23.44
2023-05-22T16:24:26.125Z,23.30
2023-05-22T16:28:25.366Z,23.16
2023-05-22T16:32:20.983Z,23.17
2023-05-22T16:36:19.953Z,23.05
2023-05-22T16:40:15.930Z,23.13
2023-05-22T16:44:15.134Z,23.09
2023-05-22T16:47:05.128Z,23.16
2023-05-22T16:49:53.159Z,23.24
2023-05-22T16:52:41.022Z,23.32
2023-05-22T16:55:29.035Z,23.19
2023-05-22T16:58:17.190Z,23.17
2023-05-22T17:01:05.852Z,23.17
2023-05-22T17:03:54.334Z,23.36
2023-05-22T17:06:45.008Z,23.45
2023-05-22T17:09:33.041Z,23.48
2023-05-22T17:12:20.477Z,23.45
2023-05-22T17:15:09.065Z,23.50
2023-05-22T17:17:57.064Z,23.59
2023-05-22T17:20:48.908Z,23.61
2023-05-22T17:23:36.968Z,23.76
2023-05-22T17:26:25.033Z,23.91
2023-05-22T17:29:12.801Z,23.88
2023-05-22T17:32:01.060Z,23.80
2023-05-22T17:34:49.094Z,23.63
2023-05-22T17:37:37.154Z,23.70
2023-05-22T17:40:40.042Z,23.58
2023-05-22T17:43:34.638Z,23.55
2023-05-22T17:46:22.576Z,23.55
2023-05-22T17:49:10.530Z,23.53
2023-05-22T17:51:58.602Z,23.46
2023-05-22T17:54:46.804Z,23.50
2023-05-22T17:57:35.056Z,23.45
2023-05-22T18:00:23.193Z,23.24
2023-05-22T18:03:11.770Z,23.27
2023-05-22T18:05:59.666Z,22.98
2023-05-22T18:08:47.770Z,22.97
2023-05-22T18:11:35.508Z,22.91
2023-05-22T18:14:23.607Z,22.82
2023-05-22T18:17:11.841Z,22.73
2023-05-22T18:20:00.532Z,22.68
2023-05-22T18:22:48.523Z,22.64
2023-05-22T18:25:36.362Z,22.59
2023-05-22T18:28:26.051Z,22.54
2023-05-22T18:31:13.695Z,22.34
2023-05-22T18:34:01.645Z,22.08
2023-05-22T18:36:50.363Z,22.05
2023-05-22T18:39:38.378Z,22.03
2023-05-22T18:42:26.596Z,21.80
2023-05-22T18:45:14.690Z,21.73
2023-05-22T18:48:02.678Z,21.66
2023-05-22T18:50:51.558Z,21.58
2023-05-22T18:53:40.005Z,21.48
2023-05-22T18:56:28.156Z,21.32
2023-05-22T18:59:16.618Z,21.24
2023-05-22T19:02:04.820Z,21.11
2023-05-22T19:04:52.909Z,20.97
2023-05-22T19:07:41.345Z,20.87
2023-05-22T19:10:29.484Z,20.80
2023-05-22T19:13:17.397Z,20.74
2023-05-22T19:16:05.696Z,20.72
2023-05-22T19:18:53.497Z,20.60
2023-05-22T19:21:42.051Z,20.53
2023-05-22T19:24:30.669Z,20.47
2023-05-22T19:27:18.486Z,20.37
2023-05-22T19:30:06.727Z,20.36
2023-05-22T19:32:57.765Z,20.43
2023-05-22T19:35:46.662Z,20.43
2023-05-22T19:38:35.022Z,20.44
2023-05-22T19:41:23.263Z,20.46
2023-05-22T19:44:11.334Z,20.38
2023-05-22T19:46:59.043Z,20.34
2023-05-22T19:49:46.920Z,20.33
2023-05-22T19:52:34.964Z,20.32
2023-05-22T19:55:22.865Z,20.28
2023-05-22T19:58:11.126Z,20.25
2023-05-22T20:00:59.586Z,20.29
2023-05-22T20:03:47.605Z,20.27
2023-05-22T20:06:36.615Z,20.37
2023-05-22T20:09:26.380Z,20.33
2023-05-22T20:12:14.518Z,20.29
2023-05-22T20:15:03.410Z,20.23
2023-05-22T20:17:53.024Z,20.17
2023-05-22T20:20:41.093Z,20.12
2023-05-22T20:23:29.346Z,20.10
2023-05-22T20:26:17.396Z,20.04
2023-05-22T20:29:05.336Z,19.98
2023-05-22T20:31:54.298Z,19.94
2023-05-22T20:34:42.474Z,19.73
2023-05-22T20:37:34.395Z,19.85
2023-05-22T20:40:25.874Z,19.86
2023-05-22T20:43:14.088Z,19.73
2023-05-22T20:46:02.723Z,19.74
2023-05-22T20:48:53.679Z,19.70
2023-05-22T20:51:42.749Z,19.31
2023-05-22T20:54:33.738Z,19.27
2023-05-22T20:57:21.949Z,19.36
2023-05-22T21:00:10.640Z,19.38
2023-05-22T21:03:00.818Z,19.21
2023-05-22T21:05:48.868Z,19.26
2023-05-22T21:08:37.604Z,19.24
2023-05-22T21:11:26.213Z,18.89
2023-05-22T21:14:14.344Z,19.03
2023-05-22T21:17:02.133Z,18.93
2023-05-22T21:19:50.155Z,18.94
2023-05-22T21:22:38.150Z,18.79
2023-05-22T21:25:26.270Z,18.66
2023-05-22T21:28:14.321Z,18.63
2023-05-22T21:31:02.145Z,18.61
2023-05-22T21:33:50.174Z,18.56
2023-05-22T21:36:38.306Z,18.44
2023-05-22T21:39:26.038Z,18.24
2023-05-22T21:42:14.793Z,18.13
2023-05-22T21:45:02.954Z,18.19
2023-05-22T21:47:50.915Z,18.17
2023-05-22T21:50:39.035Z,18.06
2023-05-22T21:53:26.777Z,17.95
2023-05-22T21:56:14.635Z,17.94
2023-05-22T21:59:02.988Z,17.87
2023-05-22T22:01:50.811Z,17.65
2023-05-22T22:04:39.209Z,17.43
2023-05-22T22:07:26.944Z,17.43
2023-05-22T22:10:14.978Z,17.66
2023-05-22T22:13:03.263Z,17.45
2023-05-22T22:15:59.350Z,17.63
2023-05-22T22:18:50.821Z,17.63
2023-05-22T22:21:38.634Z,17.30
2023-05-22T22:24:29.106Z,17.40
2023-05-22T22:27:17.153Z,17.46
2023-05-22T22:30:05.896Z,17.40
2023-05-22T22:32:54.324Z,17.27
2023-05-22T22:35:42.687Z,17.28
2023-05-22T22:38:32.574Z,17.11
2023-05-22T22:41:20.412Z,16.94
2023-05-22T22:44:08.225Z,16.67
2023-05-22T22:46:56.605Z,16.54
2023-05-22T22:49:44.461Z,16.40
2023-05-22T22:52:32.693Z,16.30
2023-05-22T22:55:20.790Z,16.33
2023-05-22T22:58:09.055Z,16.38
2023-05-22T23:00:57.155Z,16.54
2023-05-22T23:03:44.988Z,16.52
2023-05-22T23:06:34.150Z,16.50
2023-05-22T23:09:21.859Z,16.50
2023-05-22T23:12:09.927Z,16.46
2023-05-22T23:14:57.866Z,16.44
2023-05-22T23:17:46.156Z,16.22
2023-05-22T23:20:34.145Z,16.30
2023-05-22T23:23:23.639Z,16.18
2023-05-22T23:26:11.507Z,16.18
2023-05-22T23:28:59.746Z,16.22
2023-05-22T23:31:47.777Z,16.39
2023-05-22T23:34:35.897Z,16.44
2023-05-22T23:37:23.622Z,16.47
2023-05-22T23:40:12.191Z,16.15
2023-05-22T23:42:59.958Z,16.09
2023-05-22T23:45:48.321Z,16.25
2023-05-22T23:48:36.282Z,16.20
2023-05-22T23:51:24.043Z,15.91
2023-05-22T23:54:12.616Z,15.83
2023-05-22T23:57:00.452Z,15.84
2023-05-22T23:59:48.166Z,15.81
